createdAt,value
2019-01-29T00:00:58.669Z,8.37
2019-01-29T00:03:39.231Z,5.63
2019-01-29T00:06:20.082Z,4.40
2019-01-29T00:09:00.775Z,4.80
2019-01-29T00:11:44.564Z,4.50
2019-01-29T00:14:25.085Z,5.93
2019-01-29T00:17:06.318Z,5.77
2019-01-29T00:22:33.449Z,4.50
2019-01-29T00:25:14.282Z,3.77
2019-01-29T00:27:55.740Z,4.93
2019-01-29T00:30:36.481Z,4.70
2019-01-29T00:35:59.492Z,18.03
2019-01-29T00:41:22.911Z,4.77
2019-01-29T00:44:04.330Z,5.60
2019-01-29T00:46:44.848Z,5.63
2019-01-29T00:52:12.827Z,5.23
2019-01-29T00:57:38.541Z,5.70
2019-01-29T01:00:22.815Z,5.57
2019-01-29T01:03:03.423Z,6.27
2019-01-29T01:05:47.891Z,5.50
2019-01-29T01:08:28.366Z,5.93
2019-01-29T01:11:09.347Z,4.93
2019-01-29T01:13:49.788Z,5.70
2019-01-29T01:16:34.065Z,5.27
2019-01-29T01:19:15.165Z,4.83
2019-01-29T01:21:56.304Z,4.30
2019-01-29T01:30:16.455Z,4.30
2019-01-29T01:32:57.712Z,4.63
2019-01-29T01:35:38.602Z,4.00
2019-01-29T01:38:19.804Z,4.87
2019-01-29T01:41:03.549Z,4.97
2019-01-29T01:43:32.688Z,5.00
2019-01-29T01:46:20.898Z,5.00
2019-01-29T01:49:09.023Z,4.60
2019-01-29T01:51:53.198Z,4.57
2019-01-29T01:54:33.632Z,4.93
2019-01-29T01:57:14.621Z,5.00
2019-01-29T01:59:53.986Z,4.77
2019-01-29T02:02:38.161Z,4.20
2019-01-29T02:08:03.841Z,5.10
2019-01-29T02:10:44.649Z,4.13
2019-01-29T02:16:14.193Z,3.73
2019-01-29T02:21:40.140Z,5.23
2019-01-29T02:27:06.555Z,5.03
2019-01-29T02:32:32.364Z,4.60
2019-01-29T02:38:05.036Z,4.83
2019-01-29T02:40:48.626Z,5.50
2019-01-29T02:43:29.948Z,4.43
2019-01-29T02:46:10.457Z,5.47
2019-01-29T02:51:33.684Z,5.20
2019-01-29T02:56:56.809Z,8.97
2019-01-29T02:59:38.213Z,5.37
2019-01-29T03:02:22.570Z,5.37
2019-01-29T03:05:03.612Z,5.37
2019-01-29T03:07:44.620Z,5.20
2019-01-29T03:10:30.479Z,5.57
2019-01-29T03:13:14.134Z,5.27
2019-01-29T03:15:54.608Z,5.80
2019-01-29T03:18:35.887Z,7.43
2019-01-29T03:21:16.491Z,6.40
2019-01-29T03:26:49.271Z,6.50
2019-01-29T03:32:18.415Z,6.37
2019-01-29T03:37:47.316Z,5.93
2019-01-29T03:40:27.851Z,6.50
2019-01-29T03:43:11.577Z,5.40
2019-01-29T03:45:40.626Z,6.17
2019-01-29T03:48:28.890Z,6.20
2019-01-29T03:51:17.184Z,16.27
2019-01-29T03:56:46.714Z,5.97
2019-01-29T04:02:19.192Z,6.37
2019-01-29T04:07:36.514Z,6.30
2019-01-29T04:13:09.189Z,6.73
2019-01-29T04:18:40.838Z,8.10
2019-01-29T04:21:25.154Z,6.27
2019-01-29T04:26:51.916Z,8.40
2019-01-29T04:32:21.675Z,6.10
2019-01-29T04:35:03.067Z,5.63
2019-01-29T04:37:43.994Z,5.97
2019-01-29T04:40:24.605Z,6.10
2019-01-29T04:43:05.997Z,5.57
2019-01-29T04:45:47.208Z,5.77
2019-01-29T04:48:31.415Z,5.60
2019-01-29T04:54:02.996Z,6.47
2019-01-29T04:56:46.605Z,9.47
2019-01-29T05:02:18.458Z,7.33
2019-01-29T05:07:50.144Z,5.90
2019-01-29T05:13:22.660Z,5.77
2019-01-29T05:16:03.107Z,5.97
2019-01-29T05:18:47.278Z,5.67
2019-01-29T05:21:28.840Z,5.90
2019-01-29T05:24:12.699Z,6.27
2019-01-29T05:26:56.755Z,5.77
2019-01-29T05:29:38.167Z,6.00
2019-01-29T05:32:18.786Z,6.07
2019-01-29T05:34:59.335Z,6.87
2019-01-29T05:37:40.676Z,5.67
2019-01-29T05:40:21.564Z,5.70
2019-01-29T05:45:54.880Z,6.23
2019-01-29T05:48:36.256Z,6.10
2019-01-29T05:54:02.005Z,6.27
2019-01-29T06:02:22.798Z,5.80
2019-01-29T06:05:03.440Z,6.93
2019-01-29T06:07:47.653Z,6.70
2019-01-29T06:13:12.064Z,6.57
2019-01-29T06:18:41.644Z,8.30
2019-01-29T06:21:22.424Z,8.17
2019-01-29T06:24:03.645Z,7.67
2019-01-29T06:26:44.615Z,7.10
2019-01-29T06:29:25.535Z,7.23
2019-01-29T06:32:06.059Z,5.33
2019-01-29T06:34:46.796Z,5.53
2019-01-29T06:37:28.176Z,5.27
2019-01-29T06:40:08.918Z,6.20
2019-01-29T06:42:51.159Z,5.00
2019-01-29T06:45:32.500Z,6.30
2019-01-29T06:48:01.524Z,5.03
2019-01-29T06:50:49.690Z,5.63
2019-01-29T06:53:34.156Z,6.40
2019-01-29T06:56:15.788Z,5.53
2019-01-29T06:58:56.483Z,7.37
2019-01-29T07:01:37.562Z,7.20
2019-01-29T07:04:06.494Z,7.33
2019-01-29T07:06:54.711Z,6.77
2019-01-29T07:09:38.475Z,7.57
2019-01-29T07:12:19.137Z,6.73
2019-01-29T07:15:00.357Z,7.37
2019-01-29T07:17:44.222Z,7.23
2019-01-29T07:23:09.910Z,7.47
2019-01-29T07:25:51.167Z,6.50
2019-01-29T07:28:35.639Z,5.57
2019-01-29T07:31:16.238Z,6.43
2019-01-29T07:34:00.339Z,6.50
2019-01-29T07:39:29.794Z,5.30
2019-01-29T07:45:21.123Z,5.83
2019-01-29T07:48:04.950Z,5.87
2019-01-29T07:53:30.482Z,6.80
2019-01-29T07:59:03.133Z,6.40
2019-01-29T08:01:32.301Z,5.93
2019-01-29T08:04:20.623Z,6.70
2019-01-29T08:07:08.871Z,6.60
2019-01-29T08:09:50.115Z,6.20
2019-01-29T08:15:20.175Z,6.03
2019-01-29T08:20:52.613Z,6.17
2019-01-29T08:23:36.992Z,6.77
2019-01-29T08:26:18.393Z,7.20
2019-01-29T08:29:02.478Z,7.90
2019-01-29T08:31:47.054Z,6.90
2019-01-29T08:34:31.139Z,7.40
2019-01-29T08:40:03.486Z,7.10
2019-01-29T08:45:35.840Z,6.13
2019-01-29T08:48:19.340Z,6.60
2019-01-29T08:53:51.287Z,6.03
2019-01-29T08:56:32.474Z,5.57
2019-01-29T08:59:16.330Z,8.03
2019-01-29T09:01:57.679Z,7.00
2019-01-29T09:04:42.142Z,9.10
2019-01-29T09:07:23.265Z,10.00
2019-01-29T09:10:07.025Z,8.27
2019-01-29T09:15:39.335Z,7.40
2019-01-29T09:18:23.544Z,6.53
2019-01-29T09:26:47.657Z,6.00
2019-01-29T09:29:31.185Z,5.53
2019-01-29T09:34:59.651Z,6.90
2019-01-29T09:40:29.043Z,5.90
2019-01-29T09:46:00.778Z,5.20
2019-01-29T09:48:44.809Z,8.67
2019-01-29T09:54:14.520Z,8.10
2019-01-29T09:56:56.013Z,7.47
2019-01-29T09:59:37.619Z,7.00
2019-01-29T10:05:05.314Z,6.10
2019-01-29T10:10:34.826Z,7.13
2019-01-29T10:16:07.000Z,6.10
2019-01-29T10:18:48.483Z,6.57
2019-01-29T10:21:30.323Z,5.93
2019-01-29T10:24:11.385Z,6.13
2019-01-29T10:26:52.124Z,5.70
2019-01-29T10:29:32.965Z,6.20
2019-01-29T10:32:02.097Z,5.57
2019-01-29T10:34:50.425Z,6.23
2019-01-29T10:37:38.788Z,5.97
2019-01-29T10:40:25.020Z,6.20
2019-01-29T10:43:06.875Z,5.17
2019-01-29T10:45:48.859Z,6.07
2019-01-29T10:48:29.821Z,5.10
2019-01-29T10:51:10.965Z,5.97
2019-01-29T10:53:54.891Z,4.90
2019-01-29T10:59:20.589Z,4.70
2019-01-29T11:02:01.281Z,4.40
2019-01-29T11:04:42.334Z,3.87
2019-01-29T11:07:23.707Z,5.13
2019-01-29T11:10:07.222Z,4.50
2019-01-29T11:12:48.617Z,3.80
2019-01-29T11:15:29.195Z,4.00
2019-01-29T11:18:09.939Z,4.40
2019-01-29T11:21:17.434Z,4.67
2019-01-29T11:23:46.334Z,5.30
2019-01-29T11:26:26.993Z,4.37
2019-01-29T11:29:08.500Z,4.47
2019-01-29T11:31:49.818Z,4.83
2019-01-29T11:34:31.215Z,4.20
2019-01-29T11:37:12.239Z,5.70
2019-01-29T11:39:53.553Z,5.63
2019-01-29T11:42:22.707Z,5.97
2019-01-29T11:45:12.746Z,5.97
2019-01-29T11:51:16.234Z,6.70
2019-01-29T11:53:57.540Z,6.80
2019-01-29T11:56:38.551Z,6.90
2019-01-29T11:59:19.203Z,6.40
2019-01-29T12:05:23.465Z,7.00
2019-01-29T12:08:02.809Z,6.23
2019-01-29T12:10:43.969Z,6.07
2019-01-29T12:13:24.944Z,6.13
2019-01-29T12:16:06.355Z,6.40
2019-01-29T12:18:53.612Z,6.10
2019-01-29T12:21:31.027Z,6.90
2019-01-29T12:24:13.139Z,8.30
2019-01-29T12:26:54.035Z,6.97
2019-01-29T12:29:34.959Z,6.73
2019-01-29T12:32:16.071Z,7.27
2019-01-29T12:34:57.439Z,7.30
2019-01-29T12:37:38.914Z,6.00
2019-01-29T12:40:08.388Z,6.10
2019-01-29T12:42:56.672Z,6.40
2019-01-29T12:45:44.890Z,6.70
2019-01-29T12:48:25.494Z,5.50
2019-01-29T12:51:12.795Z,4.80
2019-01-29T12:53:53.356Z,4.87
2019-01-29T12:56:34.429Z,4.80
2019-01-29T12:59:15.904Z,5.00
2019-01-29T13:02:08.831Z,4.00
2019-01-29T13:10:30.250Z,3.93
2019-01-29T13:19:00.511Z,4.50
2019-01-29T13:21:41.098Z,4.13
2019-01-29T13:24:23.312Z,4.90
2019-01-29T13:27:23.394Z,5.27
2019-01-29T13:29:56.782Z,5.40
2019-01-29T13:35:21.332Z,4.43
2019-01-29T13:38:02.666Z,5.87
2019-01-29T13:40:43.525Z,5.17
2019-01-29T13:48:56.156Z,4.67
2019-01-29T13:51:36.729Z,5.27
2019-01-29T14:00:13.134Z,4.57
2019-01-29T14:02:54.099Z,4.70
2019-01-29T14:05:38.248Z,3.80
2019-01-29T14:10:58.143Z,4.60
2019-01-29T14:19:43.571Z,4.20
2019-01-29T14:25:12.247Z,6.10
2019-01-29T14:30:44.917Z,4.80
2019-01-29T14:36:02.804Z,3.20
2019-01-29T14:39:10.346Z,2.00
2019-01-29T14:42:13.824Z,2.83
2019-01-29T14:47:44.163Z,2.57
2019-01-29T14:50:28.589Z,2.30
2019-01-29T14:53:27.383Z,2.90
2019-01-29T14:56:13.382Z,2.90
2019-01-29T14:58:54.978Z,3.37
2019-01-29T15:01:36.250Z,3.70
2019-01-29T15:10:31.303Z,3.57
2019-01-29T15:14:03.312Z,4.53
2019-01-29T15:19:19.548Z,4.63
2019-01-29T15:22:00.995Z,3.90
2019-01-29T15:24:48.043Z,5.10
2019-01-29T15:33:07.912Z,5.67
2019-01-29T15:35:53.456Z,5.50
2019-01-29T15:41:38.467Z,5.03
2019-01-29T15:44:23.253Z,4.73
2019-01-29T15:49:54.922Z,4.00
2019-01-29T15:52:37.197Z,4.10
2019-01-29T15:55:37.615Z,4.50
2019-01-29T15:58:09.310Z,4.50
2019-01-29T16:00:59.675Z,4.53
2019-01-29T16:10:05.574Z,4.60
2019-01-29T16:12:47.071Z,4.33
2019-01-29T16:15:27.741Z,5.30
2019-01-29T16:20:55.442Z,4.30
2019-01-29T16:26:42.475Z,4.90
2019-01-29T16:35:34.292Z,5.93
2019-01-29T16:41:12.462Z,5.60
2019-01-29T16:46:50.952Z,4.50
2019-01-29T16:49:20.169Z,3.40
2019-01-29T16:52:08.488Z,3.43
2019-01-29T16:54:53.278Z,3.40
2019-01-29T16:57:34.685Z,4.17
2019-01-29T17:00:20.915Z,3.60
2019-01-29T17:03:02.162Z,4.27
2019-01-29T17:05:53.182Z,3.63
2019-01-29T17:08:34.129Z,3.53
2019-01-29T17:11:15.174Z,4.20
2019-01-29T17:16:42.844Z,4.00
2019-01-29T17:19:24.036Z,3.97
2019-01-29T17:22:04.832Z,4.60
2019-01-29T17:24:45.817Z,4.40
2019-01-29T17:27:40.060Z,4.07
2019-01-29T17:32:56.527Z,5.23
2019-01-29T17:35:37.023Z,4.07
2019-01-29T17:41:09.948Z,3.73
2019-01-29T17:43:51.325Z,4.20
2019-01-29T17:46:32.548Z,4.87
2019-01-29T17:49:13.222Z,3.97
2019-01-29T17:54:44.929Z,3.57
2019-01-29T17:57:26.304Z,4.10
2019-01-29T18:00:07.679Z,3.40
2019-01-29T18:08:08.674Z,3.30
2019-01-29T18:10:37.859Z,3.60
2019-01-29T18:13:26.162Z,3.90
2019-01-29T18:16:14.705Z,3.30
2019-01-29T18:18:58.416Z,3.90
2019-01-29T18:21:43.539Z,3.60
2019-01-29T18:24:19.224Z,3.83
2019-01-29T18:27:00.110Z,3.47
2019-01-29T18:29:41.839Z,3.40
2019-01-29T18:32:21.174Z,3.27
2019-01-29T18:35:02.060Z,4.30
2019-01-29T18:40:30.055Z,3.33
2019-01-29T18:43:10.742Z,2.87
2019-01-29T18:45:51.609Z,2.70
2019-01-29T18:48:21.614Z,2.50
2019-01-29T18:51:10.010Z,3.13
2019-01-29T18:53:58.419Z,2.73
2019-01-29T18:56:38.952Z,2.90
2019-01-29T18:59:19.641Z,2.90
2019-01-29T19:01:48.829Z,2.63
2019-01-29T19:04:37.095Z,2.57
2019-01-29T19:07:21.315Z,2.63
2019-01-29T19:10:02.102Z,3.30
2019-01-29T19:12:45.858Z,2.57
2019-01-29T19:18:11.533Z,2.40
2019-01-29T19:20:52.096Z,2.90
2019-01-29T19:23:33.486Z,2.90
2019-01-29T19:26:13.997Z,2.40
2019-01-29T19:28:57.603Z,3.90
2019-01-29T19:31:38.272Z,3.33
2019-01-29T19:34:19.688Z,3.07
2019-01-29T19:40:16.372Z,3.20
2019-01-29T19:42:57.718Z,2.57
2019-01-29T19:45:41.701Z,3.50
2019-01-29T19:48:22.928Z,3.03
2019-01-29T19:54:04.259Z,3.20
2019-01-29T19:56:45.113Z,2.97
2019-01-29T19:59:25.864Z,3.37
2019-01-29T20:02:10.121Z,3.40
2019-01-29T20:10:22.435Z,3.13
2019-01-29T20:13:03.264Z,3.60
2019-01-29T20:15:42.782Z,3.40
2019-01-29T20:18:26.729Z,4.07
2019-01-29T20:23:49.890Z,4.50
2019-01-29T20:26:31.261Z,4.20
2019-01-29T20:29:11.824Z,5.17
2019-01-29T20:31:51.088Z,4.80
2019-01-29T20:34:35.534Z,4.27
2019-01-29T20:37:16.977Z,4.73
2019-01-29T20:39:57.888Z,4.50
2019-01-29T20:42:27.122Z,5.67
2019-01-29T20:45:15.470Z,5.53
2019-01-29T20:48:03.742Z,5.80
2019-01-29T20:50:44.579Z,4.83
2019-01-29T20:53:25.354Z,5.80
2019-01-29T20:56:06.761Z,4.87
2019-01-29T20:58:52.705Z,5.70
2019-01-29T21:01:30.878Z,6.07
2019-01-29T21:04:13.464Z,5.43
2019-01-29T21:06:57.429Z,6.00
2019-01-29T21:09:38.481Z,6.30
2019-01-29T21:12:21.127Z,6.07
2019-01-29T21:15:02.573Z,7.17
2019-01-29T21:20:32.171Z,7.47
2019-01-29T21:23:12.971Z,7.00
2019-01-29T21:25:54.249Z,6.70
2019-01-29T21:31:17.368Z,7.10
2019-01-29T21:33:59.358Z,6.20
2019-01-29T21:36:40.512Z,7.40
2019-01-29T21:42:04.060Z,7.00
2019-01-29T21:44:44.631Z,6.33
2019-01-29T21:47:13.696Z,6.40
2019-01-29T21:50:11.389Z,7.97
2019-01-29T21:52:44.719Z,7.00
2019-01-29T21:55:14.039Z,8.13
2019-01-29T21:57:43.001Z,7.13
2019-01-29T22:00:50.479Z,7.97
2019-01-29T22:03:38.556Z,5.70
2019-01-29T22:06:19.515Z,8.20
2019-01-29T22:08:59.995Z,7.03
2019-01-29T22:14:22.988Z,7.60
2019-01-29T22:17:03.815Z,7.73
2019-01-29T22:19:47.918Z,6.70
2019-01-29T22:22:29.322Z,7.07
2019-01-29T22:24:58.332Z,6.20
2019-01-29T22:27:46.427Z,6.30
2019-01-29T22:30:29.344Z,7.47
2019-01-29T22:35:52.252Z,7.00
2019-01-29T22:38:32.820Z,6.33
2019-01-29T22:41:17.266Z,7.20
2019-01-29T22:43:57.818Z,8.47
2019-01-29T22:46:41.393Z,8.57
2019-01-29T22:49:22.781Z,8.23
2019-01-29T22:52:06.724Z,6.80
2019-01-29T22:54:47.180Z,8.70
2019-01-29T22:57:27.827Z,7.87
2019-01-29T23:00:08.857Z,8.07
2019-01-29T23:02:50.023Z,8.20
2019-01-29T23:05:31.040Z,7.50
2019-01-29T23:08:12.278Z,7.50
2019-01-29T23:13:35.888Z,8.23
2019-01-29T23:16:04.951Z,8.50
2019-01-29T23:18:46.146Z,6.53
2019-01-29T23:21:26.895Z,6.20
2019-01-29T23:24:07.863Z,6.20
2019-01-29T23:26:48.828Z,7.43
2019-01-29T23:29:29.667Z,6.20
2019-01-29T23:32:10.594Z,6.43
2019-01-29T23:34:51.516Z,6.77
2019-01-29T23:37:32.059Z,7.90
2019-01-29T23:40:14.221Z,7.50
2019-01-29T23:42:55.218Z,7.87
2019-01-29T23:45:36.574Z,7.23
2019-01-29T23:48:17.754Z,8.43
2019-01-29T23:51:01.661Z,7.40
2019-01-29T23:53:42.296Z,8.20
2019-01-29T23:56:23.099Z,8.77
